createdAt,value
2018-07-06T00:01:59.635Z,3.60
2018-07-06T00:04:41.590Z,6.28
2018-07-06T00:07:23.607Z,3.58
2018-07-06T00:10:05.882Z,4.37
2018-07-06T00:12:47.898Z,4.45
2018-07-06T00:15:30.005Z,7.47
2018-07-06T00:18:12.083Z,3.70
2018-07-06T00:20:54.034Z,4.10
2018-07-06T00:23:35.963Z,6.25
2018-07-06T00:26:17.718Z,4.17
2018-07-06T00:28:59.794Z,4.78
2018-07-06T00:31:41.865Z,5.33
2018-07-06T00:34:24.039Z,3.70
2018-07-06T00:37:05.834Z,4.20
2018-07-06T00:39:47.955Z,5.47
2018-07-06T00:42:29.786Z,4.45
2018-07-06T00:45:11.730Z,3.60
2018-07-06T00:47:53.698Z,5.30
2018-07-06T00:50:35.690Z,3.37
2018-07-06T00:53:17.663Z,3.35
2018-07-06T00:55:59.690Z,3.00
2018-07-06T00:58:41.711Z,4.42
2018-07-06T01:01:23.585Z,4.90
2018-07-06T01:04:05.811Z,5.03
2018-07-06T01:06:47.626Z,3.98
2018-07-06T01:09:29.750Z,3.33
2018-07-06T01:12:17.230Z,5.00
2018-07-06T01:15:01.871Z,4.78
2018-07-06T01:17:43.891Z,5.30
2018-07-06T01:20:25.934Z,5.50
2018-07-06T01:23:07.874Z,4.10
2018-07-06T01:25:49.994Z,5.75
2018-07-06T01:28:32.166Z,3.75
2018-07-06T01:31:14.355Z,3.00
2018-07-06T01:33:56.382Z,2.62
2018-07-06T01:36:38.711Z,2.83
2018-07-06T01:39:20.790Z,5.47
2018-07-06T01:42:02.910Z,3.15
2018-07-06T01:44:44.754Z,4.28
2018-07-06T01:47:27.255Z,6.17
2018-07-06T01:50:09.163Z,3.50
2018-07-06T01:52:51.219Z,4.12
2018-07-06T01:55:33.163Z,6.78
2018-07-06T01:58:15.285Z,3.02
2018-07-06T02:00:57.350Z,3.33
2018-07-06T02:03:39.433Z,6.08
2018-07-06T02:06:21.326Z,5.03
2018-07-06T02:09:03.503Z,4.47
2018-07-06T02:11:45.555Z,5.20
2018-07-06T02:14:27.782Z,3.92
2018-07-06T02:17:09.926Z,4.70
2018-07-06T02:19:52.135Z,6.28
2018-07-06T02:22:34.498Z,6.40
2018-07-06T02:25:16.570Z,6.17
2018-07-06T02:27:58.730Z,6.33
2018-07-06T02:30:40.595Z,3.98
2018-07-06T02:33:22.626Z,3.45
2018-07-06T02:36:04.723Z,5.15
2018-07-06T02:38:46.811Z,5.15
2018-07-06T02:41:28.683Z,3.12
2018-07-06T02:44:10.886Z,6.95
2018-07-06T02:46:52.899Z,4.70
2018-07-06T02:49:35.051Z,4.92
2018-07-06T02:52:17.315Z,7.30
2018-07-06T02:54:59.813Z,5.00
2018-07-06T02:57:42.101Z,5.45
2018-07-06T03:00:24.362Z,4.62
2018-07-06T03:03:06.553Z,4.90
2018-07-06T03:05:48.670Z,4.70
2018-07-06T03:08:30.839Z,8.35
2018-07-06T03:11:12.849Z,4.92
2018-07-06T03:13:55.070Z,4.70
2018-07-06T03:16:37.087Z,7.70
2018-07-06T03:19:19.280Z,6.37
2018-07-06T03:22:01.311Z,6.45
2018-07-06T03:24:43.363Z,8.43
2018-07-06T03:27:25.525Z,5.20
2018-07-06T03:30:07.659Z,7.35
2018-07-06T03:32:49.726Z,6.70
2018-07-06T03:35:31.794Z,6.45
2018-07-06T03:38:14.035Z,6.42
2018-07-06T03:40:55.999Z,7.72
2018-07-06T03:43:38.185Z,4.37
2018-07-06T03:46:20.202Z,7.53
2018-07-06T03:49:02.326Z,7.55
2018-07-06T03:51:44.507Z,8.45
2018-07-06T03:54:26.642Z,5.60
2018-07-06T03:57:08.687Z,6.62
2018-07-06T03:59:50.915Z,5.45
2018-07-06T04:02:32.924Z,6.87
2018-07-06T04:05:15.183Z,6.92
2018-07-06T04:07:57.246Z,6.95
2018-07-06T04:10:39.400Z,6.12
2018-07-06T04:13:21.407Z,6.62
2018-07-06T04:16:03.533Z,10.55
2018-07-06T04:18:45.574Z,8.38
2018-07-06T04:21:27.758Z,8.75
2018-07-06T04:24:09.898Z,8.00
2018-07-06T04:26:52.040Z,9.03
2018-07-06T04:29:34.102Z,7.17
2018-07-06T04:32:16.128Z,8.50
2018-07-06T04:34:58.223Z,7.20
2018-07-06T04:37:40.644Z,8.28
2018-07-06T04:40:22.922Z,9.58
2018-07-06T04:43:05.555Z,7.67
2018-07-06T04:45:48.238Z,7.08
2018-07-06T04:48:30.191Z,6.65
2018-07-06T04:51:12.232Z,14.58
2018-07-06T04:53:54.423Z,6.97
2018-07-06T04:56:36.511Z,8.23
2018-07-06T04:59:18.566Z,6.85
2018-07-06T05:02:00.799Z,8.50
2018-07-06T05:04:43.003Z,9.85
2018-07-06T05:07:24.904Z,7.53
2018-07-06T05:10:07.027Z,9.18
2018-07-06T05:12:49.026Z,10.32
2018-07-06T05:15:31.198Z,9.45
2018-07-06T05:18:13.311Z,9.25
2018-07-06T05:20:55.509Z,7.28
2018-07-06T05:23:37.543Z,10.28
2018-07-06T05:26:19.710Z,7.55
2018-07-06T05:29:01.795Z,8.83
2018-07-06T05:31:43.914Z,10.60
2018-07-06T05:34:25.930Z,7.30
2018-07-06T05:37:08.271Z,9.88
2018-07-06T05:39:50.314Z,7.70
2018-07-06T05:42:32.459Z,8.20
2018-07-06T05:45:14.938Z,10.15
2018-07-06T05:47:57.051Z,9.03
2018-07-06T05:50:39.151Z,9.00
2018-07-06T05:53:21.296Z,14.20
2018-07-06T05:56:03.370Z,11.25
2018-07-06T05:58:45.642Z,9.35
2018-07-06T06:01:28.094Z,13.05
2018-07-06T06:04:10.031Z,11.53
2018-07-06T06:06:52.147Z,11.83
2018-07-06T06:09:22.814Z,9.88
2018-07-06T06:11:53.526Z,14.07
2018-07-06T06:14:24.211Z,10.20
2018-07-06T06:16:54.902Z,11.28
2018-07-06T06:19:25.728Z,11.93
2018-07-06T06:21:56.710Z,13.60
2018-07-06T06:24:27.391Z,10.35
2018-07-06T06:26:58.075Z,10.55
2018-07-06T06:29:28.813Z,10.40
2018-07-06T06:32:00.175Z,11.57
2018-07-06T06:34:30.914Z,16.12
2018-07-06T06:37:02.424Z,14.45
2018-07-06T06:39:33.507Z,15.88
2018-07-06T06:42:04.695Z,15.03
2018-07-06T06:44:35.442Z,14.28
2018-07-06T06:47:06.810Z,18.20
2018-07-06T06:49:37.740Z,18.05
2018-07-06T06:52:08.446Z,15.43
2018-07-06T06:54:39.182Z,18.48
2018-07-06T06:57:09.839Z,17.30
2018-07-06T06:59:40.594Z,12.58
2018-07-06T07:02:11.383Z,12.73
2018-07-06T07:04:42.154Z,12.93
2018-07-06T07:07:13.062Z,12.47
2018-07-06T07:09:43.814Z,13.90
2018-07-06T07:12:14.822Z,20.60
2018-07-06T07:14:45.599Z,21.07
2018-07-06T07:17:16.334Z,18.40
2018-07-06T07:19:47.026Z,17.65
2018-07-06T07:22:17.734Z,20.80
2018-07-06T07:24:48.487Z,22.35
2018-07-06T07:27:19.507Z,21.65
2018-07-06T07:29:50.382Z,20.15
2018-07-06T07:32:21.062Z,28.67
2018-07-06T07:34:51.804Z,31.07
2018-07-06T07:37:22.499Z,39.95
2018-07-06T07:39:53.539Z,42.55
2018-07-06T07:42:24.574Z,45.30
2018-07-06T07:44:55.315Z,38.92
2018-07-06T07:47:26.078Z,41.18
2018-07-06T07:49:56.759Z,41.83
2018-07-06T07:52:38.844Z,46.50
2018-07-06T07:55:09.624Z,44.88
2018-07-06T07:57:39.262Z,44.83
2018-07-06T08:00:10.013Z,42.85
2018-07-06T08:02:40.646Z,38.80
2018-07-06T08:05:11.327Z,40.52
2018-07-06T08:07:42.041Z,42.95
2018-07-06T08:10:12.739Z,40.85
2018-07-06T08:12:43.418Z,40.98
2018-07-06T08:15:14.128Z,34.05
2018-07-06T08:17:44.786Z,37.67
2018-07-06T08:20:15.495Z,41.77
2018-07-06T08:22:46.164Z,43.42
2018-07-06T08:25:16.860Z,46.55
2018-07-06T08:27:47.490Z,42.83
2018-07-06T08:30:18.193Z,47.85
2018-07-06T08:32:49.014Z,44.40
2018-07-06T08:35:31.216Z,45.20
2018-07-06T08:38:05.280Z,37.53
2018-07-06T08:40:36.148Z,44.42
2018-07-06T08:43:07.130Z,45.43
2018-07-06T08:45:37.803Z,43.87
2018-07-06T08:48:08.462Z,46.77
2018-07-06T08:50:39.147Z,43.15
2018-07-06T08:53:09.799Z,44.10
2018-07-06T08:55:40.471Z,44.05
2018-07-06T08:58:11.132Z,41.20
2018-07-06T09:00:42.018Z,43.42
2018-07-06T09:03:12.786Z,38.55
2018-07-06T09:05:43.498Z,39.63
2018-07-06T09:08:14.156Z,43.60
2018-07-06T09:10:44.846Z,37.13
2018-07-06T09:13:15.516Z,42.05
2018-07-06T09:15:46.231Z,37.60
2018-07-06T09:18:16.883Z,35.35
2018-07-06T09:20:47.651Z,32.45
2018-07-06T09:23:18.507Z,35.05
2018-07-06T09:25:49.249Z,34.33
2018-07-06T09:28:20.119Z,39.38
2018-07-06T09:30:50.730Z,35.15
2018-07-06T09:33:21.490Z,33.08
2018-07-06T09:35:52.174Z,42.65
2018-07-06T09:38:23.004Z,34.20
2018-07-06T09:40:53.707Z,32.15
2018-07-06T09:43:24.401Z,32.10
2018-07-06T09:45:55.230Z,29.37
2018-07-06T09:48:25.590Z,31.90
2018-07-06T09:50:56.326Z,29.37
2018-07-06T09:53:27.132Z,29.72
2018-07-06T09:55:57.914Z,24.52
2018-07-06T09:58:28.520Z,28.30
2018-07-06T10:00:59.722Z,30.72
2018-07-06T10:03:30.446Z,28.67
2018-07-06T10:06:01.131Z,29.50
2018-07-06T10:08:31.783Z,33.80
2018-07-06T10:11:02.541Z,31.45
2018-07-06T10:13:40.530Z,31.23
2018-07-06T10:16:11.508Z,31.03
2018-07-06T10:18:42.362Z,27.22
2018-07-06T10:21:13.046Z,31.87
2018-07-06T10:23:43.503Z,26.60
2018-07-06T10:26:14.530Z,27.45
2018-07-06T10:28:52.726Z,25.23
2018-07-06T10:32:31.158Z,22.80
2018-07-06T10:35:01.840Z,22.70
2018-07-06T10:37:32.578Z,28.97
2018-07-06T10:40:03.457Z,22.02
2018-07-06T10:42:34.254Z,19.67
2018-07-06T10:45:05.146Z,23.80
2018-07-06T10:47:35.865Z,19.60
2018-07-06T10:50:06.810Z,20.17
2018-07-06T10:52:37.502Z,22.48
2018-07-06T10:55:08.194Z,21.45
2018-07-06T10:57:39.203Z,20.65
2018-07-06T11:00:10.262Z,20.48
2018-07-06T11:02:41.094Z,20.88
2018-07-06T11:05:11.807Z,21.25
2018-07-06T11:07:42.478Z,20.12
2018-07-06T11:10:13.701Z,19.25
2018-07-06T11:12:44.395Z,17.92
2018-07-06T11:15:15.257Z,19.57
2018-07-06T11:17:45.641Z,16.90
2018-07-06T11:20:16.546Z,20.57
2018-07-06T11:22:46.950Z,16.90
2018-07-06T11:25:17.563Z,14.53
2018-07-06T11:27:48.110Z,16.00
2018-07-06T11:30:18.467Z,16.50
2018-07-06T11:32:48.875Z,15.70
2018-07-06T11:35:19.262Z,17.20
2018-07-06T11:37:50.068Z,19.47
2018-07-06T11:40:20.914Z,20.07
2018-07-06T11:42:51.655Z,17.10
2018-07-06T11:45:22.031Z,16.77
2018-07-06T11:47:52.422Z,15.43
2018-07-06T11:50:22.841Z,16.33
2018-07-06T11:52:53.387Z,15.90
2018-07-06T11:55:23.746Z,15.10
2018-07-06T11:57:54.157Z,19.70
2018-07-06T12:00:24.514Z,15.57
2018-07-06T12:02:54.922Z,17.17
2018-07-06T12:05:25.296Z,14.30
2018-07-06T12:07:55.673Z,15.50
2018-07-06T12:10:26.126Z,17.10
2018-07-06T12:12:56.866Z,17.03
2018-07-06T12:15:27.306Z,21.17
2018-07-06T12:17:57.856Z,15.83
2018-07-06T12:20:28.193Z,17.60
2018-07-06T12:22:58.766Z,18.60
2018-07-06T12:25:29.147Z,18.43
2018-07-06T12:27:59.568Z,16.47
2018-07-06T12:30:29.966Z,19.17
2018-07-06T12:33:00.342Z,14.13
2018-07-06T12:35:30.790Z,11.90
2018-07-06T12:38:01.154Z,16.07
2018-07-06T12:40:31.555Z,17.20
2018-07-06T12:43:01.988Z,16.70
2018-07-06T12:45:33.724Z,16.37
2018-07-06T12:48:04.949Z,19.07
2018-07-06T12:50:35.334Z,15.37
2018-07-06T12:53:05.735Z,22.90
2018-07-06T12:55:36.138Z,15.40
2018-07-06T12:58:06.559Z,17.17
2018-07-06T13:00:37.115Z,16.87
2018-07-06T13:03:07.529Z,14.77
2018-07-06T13:05:37.613Z,16.50
2018-07-06T13:08:08.412Z,15.17
2018-07-06T13:10:38.813Z,15.87
2018-07-06T13:13:09.476Z,15.73
2018-07-06T13:15:39.862Z,15.77
2018-07-06T13:18:10.274Z,15.10
2018-07-06T13:20:40.632Z,16.03
2018-07-06T13:23:11.378Z,14.80
2018-07-06T13:25:41.751Z,15.90
2018-07-06T13:28:12.158Z,13.77
2018-07-06T13:30:42.882Z,14.07
2018-07-06T13:33:13.297Z,14.50
2018-07-06T13:35:43.650Z,17.90
2018-07-06T13:38:14.042Z,15.70
2018-07-06T13:40:44.755Z,11.50
2018-07-06T13:43:15.442Z,11.37
2018-07-06T13:45:45.825Z,10.43
2018-07-06T13:48:16.394Z,13.33
2018-07-06T13:50:47.158Z,10.27
2018-07-06T13:53:17.531Z,10.70
2018-07-06T13:55:47.883Z,13.83
2018-07-06T13:58:18.335Z,10.27
2018-07-06T14:00:48.695Z,11.30
2018-07-06T14:03:19.071Z,10.67
2018-07-06T14:05:49.469Z,11.90
2018-07-06T14:08:20.018Z,9.53
2018-07-06T14:10:50.455Z,11.90
2018-07-06T14:13:20.885Z,9.53
2018-07-06T14:15:51.313Z,9.40
2018-07-06T14:18:21.671Z,10.80
2018-07-06T14:20:52.030Z,10.40
2018-07-06T14:23:22.402Z,9.07
2018-07-06T14:25:52.791Z,14.37
2018-07-06T14:28:23.166Z,9.03
2018-07-06T14:30:53.750Z,7.43
2018-07-06T14:33:24.103Z,9.50
2018-07-06T14:35:54.854Z,8.70
2018-07-06T14:38:25.522Z,7.53
2018-07-06T14:40:55.947Z,7.60
2018-07-06T14:43:26.503Z,8.60
2018-07-06T14:45:56.878Z,6.93
2018-07-06T14:48:27.259Z,9.40
2018-07-06T14:50:57.646Z,5.97
2018-07-06T14:53:27.998Z,9.80
2018-07-06T14:55:58.798Z,6.43
2018-07-06T14:58:29.138Z,6.87
2018-07-06T15:00:59.518Z,8.03
2018-07-06T15:03:29.875Z,10.47
2018-07-06T15:06:00.607Z,6.23
2018-07-06T15:08:30.998Z,11.83
2018-07-06T15:11:01.435Z,10.90
2018-07-06T15:13:31.814Z,9.87
2018-07-06T15:16:02.291Z,5.93
2018-07-06T15:18:32.815Z,7.97
2018-07-06T15:21:03.234Z,7.53
2018-07-06T15:23:33.635Z,6.70
2018-07-06T15:26:04.014Z,7.63
2018-07-06T15:28:34.738Z,7.03
2018-07-06T15:31:05.100Z,9.13
2018-07-06T15:33:35.483Z,7.40
2018-07-06T15:36:06.180Z,6.23
2018-07-06T15:38:36.563Z,6.37
2018-07-06T15:41:06.951Z,6.07
2018-07-06T15:43:37.679Z,7.43
2018-07-06T15:46:08.038Z,7.43
2018-07-06T15:48:38.557Z,6.83
2018-07-06T15:51:09.141Z,6.63
2018-07-06T15:53:39.523Z,9.47
2018-07-06T15:56:09.890Z,7.97
2018-07-06T15:58:40.262Z,7.53
2018-07-06T16:01:10.965Z,6.57
2018-07-06T16:03:41.415Z,7.33
2018-07-06T16:06:11.731Z,10.20
2018-07-06T16:08:42.117Z,6.70
2018-07-06T16:11:12.690Z,6.33
2018-07-06T16:13:43.043Z,7.70
2018-07-06T16:16:13.818Z,6.27
2018-07-06T16:18:44.182Z,8.27
2018-07-06T16:21:14.563Z,9.03
2018-07-06T16:23:44.950Z,7.50
2018-07-06T16:26:15.306Z,7.63
2018-07-06T16:28:46.038Z,7.93
2018-07-06T16:31:16.399Z,6.77
2018-07-06T16:33:46.780Z,8.77
2018-07-06T16:36:17.219Z,7.20
2018-07-06T16:38:47.738Z,7.00
2018-07-06T16:41:18.122Z,6.80
2018-07-06T16:43:48.706Z,7.00
2018-07-06T16:46:19.058Z,6.87
2018-07-06T16:48:49.785Z,8.43
2018-07-06T16:51:20.184Z,6.50
2018-07-06T16:53:50.538Z,11.60
2018-07-06T16:56:20.940Z,13.63
2018-07-06T16:58:51.391Z,6.77
2018-07-06T17:01:21.747Z,9.20
2018-07-06T17:03:52.186Z,9.03
2018-07-06T17:06:22.594Z,6.00
2018-07-06T17:08:52.974Z,8.30
2018-07-06T17:11:23.415Z,8.40
2018-07-06T17:13:54.072Z,6.30
2018-07-06T17:16:24.583Z,7.00
2018-07-06T17:18:54.971Z,8.50
2018-07-06T17:21:25.533Z,6.07
2018-07-06T17:23:55.926Z,13.93
2018-07-06T17:26:26.323Z,8.20
2018-07-06T17:28:56.715Z,8.73
2018-07-06T17:31:27.223Z,11.80
2018-07-06T17:33:57.784Z,13.83
2018-07-06T17:36:28.218Z,9.43
2018-07-06T17:38:58.602Z,9.87
2018-07-06T17:41:28.983Z,5.93
2018-07-06T17:43:59.342Z,7.47
2018-07-06T17:46:29.722Z,9.60
2018-07-06T17:49:00.087Z,6.67
2018-07-06T17:51:30.491Z,8.30
2018-07-06T17:54:00.870Z,6.33
2018-07-06T17:56:31.270Z,8.43
2018-07-06T17:59:01.650Z,6.77
2018-07-06T18:01:32.308Z,17.90
2018-07-06T18:04:02.635Z,11.00
2018-07-06T18:06:33.474Z,8.03
2018-07-06T18:09:04.018Z,9.40
2018-07-06T18:11:34.412Z,10.87
2018-07-06T18:14:05.122Z,9.57
2018-07-06T18:16:35.607Z,7.67
2018-07-06T18:19:06.302Z,10.07
2018-07-06T18:21:36.743Z,8.23
2018-07-06T18:24:07.454Z,5.80
2018-07-06T18:26:37.848Z,6.30
2018-07-06T18:29:08.194Z,6.13
2018-07-06T18:31:38.613Z,5.03
2018-07-06T18:34:09.002Z,6.83
2018-07-06T18:36:39.350Z,9.73
2018-07-06T18:39:09.770Z,4.97
2018-07-06T18:41:40.136Z,5.23
2018-07-06T18:44:10.531Z,5.37
2018-07-06T18:46:40.911Z,5.90
2018-07-06T18:49:11.311Z,6.50
2018-07-06T18:51:42.019Z,8.63
2018-07-06T18:54:12.402Z,6.23
2018-07-06T18:56:42.762Z,7.63
2018-07-06T18:59:13.144Z,4.63
2018-07-06T19:01:43.494Z,5.80
2018-07-06T19:04:13.871Z,5.50
2018-07-06T19:06:44.595Z,6.50
2018-07-06T19:09:14.942Z,5.53
2018-07-06T19:11:45.315Z,4.13
2018-07-06T19:14:15.690Z,7.53
2018-07-06T19:16:47.350Z,6.97
2018-07-06T19:19:19.146Z,5.73
2018-07-06T19:21:49.967Z,8.37
2018-07-06T19:24:20.788Z,5.90
2018-07-06T19:26:51.870Z,4.20
2018-07-06T19:29:23.735Z,4.43
2018-07-06T19:31:55.103Z,4.80
2018-07-06T19:34:25.447Z,6.83
2018-07-06T19:36:55.845Z,6.07
2018-07-06T19:39:26.214Z,4.10
2018-07-06T19:41:56.572Z,4.57
2018-07-06T19:44:26.930Z,4.13
2018-07-06T19:46:57.400Z,6.30
2018-07-06T19:49:27.812Z,7.17
2018-07-06T19:51:58.194Z,3.83
2018-07-06T19:54:28.882Z,4.73
2018-07-06T19:56:59.608Z,4.87
2018-07-06T19:59:29.958Z,4.33
2018-07-06T20:02:00.359Z,5.83
2018-07-06T20:04:30.754Z,3.80
2018-07-06T20:07:01.179Z,4.80
2018-07-06T20:09:31.881Z,9.37
2018-07-06T20:12:02.195Z,5.17
2018-07-06T20:14:32.574Z,5.43
2018-07-06T20:17:03.065Z,6.10
2018-07-06T20:19:33.754Z,6.43
2018-07-06T20:22:04.486Z,7.10
2018-07-06T20:24:36.775Z,6.27
2018-07-06T20:27:07.238Z,8.03
2018-07-06T20:29:37.655Z,6.37
2018-07-06T20:32:08.449Z,7.10
2018-07-06T20:34:38.936Z,6.50
2018-07-06T20:37:09.392Z,5.27
2018-07-06T20:39:39.841Z,4.10
2018-07-06T20:42:10.251Z,5.20
2018-07-06T20:44:40.648Z,5.60
2018-07-06T20:47:11.082Z,12.43
2018-07-06T20:49:41.480Z,5.97
2018-07-06T20:52:11.885Z,5.73
2018-07-06T20:54:42.300Z,5.27
2018-07-06T20:57:12.722Z,5.60
2018-07-06T20:59:43.359Z,6.40
2018-07-06T21:02:13.772Z,5.63
2018-07-06T21:04:44.289Z,4.83
2018-07-06T21:07:14.852Z,5.30
2018-07-06T21:09:45.357Z,6.83
2018-07-06T21:12:16.172Z,5.80
2018-07-06T21:14:46.599Z,6.60
2018-07-06T21:17:17.043Z,6.43
2018-07-06T21:19:47.451Z,5.50
2018-07-06T21:22:17.865Z,5.53
2018-07-06T21:24:48.471Z,5.97
2018-07-06T21:27:18.875Z,5.87
2018-07-06T21:29:49.908Z,6.57
2018-07-06T21:32:20.552Z,10.13
2018-07-06T21:34:50.953Z,7.90
2018-07-06T21:37:21.340Z,6.50
2018-07-06T21:39:51.799Z,6.80
2018-07-06T21:42:22.172Z,6.17
2018-07-06T21:44:52.727Z,7.80
2018-07-06T21:47:23.127Z,5.90
2018-07-06T21:49:53.539Z,7.03
2018-07-06T21:52:24.114Z,5.90
2018-07-06T21:54:54.879Z,7.13
2018-07-06T21:57:25.359Z,8.33
2018-07-06T21:59:55.753Z,9.10
2018-07-06T22:02:26.451Z,9.28
2018-07-06T22:04:57.169Z,6.77
2018-07-06T22:07:27.947Z,6.87
2018-07-06T22:09:58.348Z,6.37
2018-07-06T22:12:28.855Z,7.47
2018-07-06T22:15:00.514Z,7.17
2018-07-06T22:17:32.557Z,8.13
2018-07-06T22:20:02.997Z,6.97
2018-07-06T22:22:33.693Z,8.18
2018-07-06T22:25:04.605Z,7.53
2018-07-06T22:27:35.308Z,7.12
2018-07-06T22:30:06.064Z,7.97
2018-07-06T22:32:37.075Z,8.03
2018-07-06T22:35:07.944Z,7.92
2018-07-06T22:37:38.639Z,8.05
2018-07-06T22:40:09.405Z,9.08
2018-07-06T22:42:40.147Z,7.78
2018-07-06T22:45:11.629Z,8.00
2018-07-06T22:47:42.697Z,6.95
2018-07-06T22:50:13.747Z,7.10
2018-07-06T22:52:44.415Z,9.80
2018-07-06T22:55:15.475Z,7.45
2018-07-06T22:57:46.147Z,9.15
2018-07-06T23:00:16.883Z,12.58
2018-07-06T23:02:46.171Z,8.00
2018-07-06T23:05:18.838Z,7.28
2018-07-06T23:07:49.687Z,9.15
2018-07-06T23:10:20.807Z,8.88
2018-07-06T23:12:51.825Z,8.13
2018-07-06T23:15:22.564Z,11.65
2018-07-06T23:17:53.236Z,8.00
2018-07-06T23:20:23.954Z,8.63
2018-07-06T23:23:01.346Z,9.15
2018-07-06T23:25:33.952Z,7.65
2018-07-06T23:28:04.996Z,11.63
2018-07-06T23:30:35.776Z,7.60
2018-07-06T23:33:07.263Z,8.63
2018-07-06T23:35:38.361Z,9.25
2018-07-06T23:38:09.934Z,8.93
2018-07-06T23:40:41.083Z,8.00
2018-07-06T23:43:12.096Z,8.33
2018-07-06T23:45:43.110Z,7.95
2018-07-06T23:48:14.134Z,8.05
2018-07-06T23:50:44.818Z,8.48
2018-07-06T23:53:15.799Z,9.13
2018-07-06T23:55:46.815Z,9.95
2018-07-06T23:58:17.475Z,7.53
